sensor_id;sensor_type;location;lat;lon;timestamp;P1;durP1;ratioP1;P2;durP2;ratioP2
81648;SDS011;71057;51.436;6.768;2023-07-31T00:01:42;15.70;;;5.40;;
81648;SDS011;71057;51.436;6.768;2023-07-31T00:04:07;10.53;;;5.00;;
81648;SDS011;71057;51.436;6.768;2023-07-31T00:06:32;12.40;;;5.60;;
81648;SDS011;71057;51.436;6.768;2023-07-31T00:08:58;14.20;;;5.80;;
81648;SDS011;71057;51.436;6.768;2023-07-31T00:11:23;10.03;;;5.13;;
81648;SDS011;71057;51.436;6.768;2023-07-31T00:13:48;13.53;;;6.00;;
81648;SDS011;71057;51.436;6.768;2023-07-31T00:16:13;10.33;;;5.90;;
81648;SDS011;71057;51.436;6.768;2023-07-31T00:18:38;12.38;;;5.40;;
81648;SDS011;71057;51.436;6.768;2023-07-31T00:21:04;12.73;;;5.47;;
81648;SDS011;71057;51.436;6.768;2023-07-31T00:23:29;12.10;;;4.93;;
81648;SDS011;71057;51.436;6.768;2023-07-31T00:25:54;11.90;;;4.80;;
81648;SDS011;71057;51.436;6.768;2023-07-31T00:28:19;10.67;;;4.80;;
81648;SDS011;71057;51.436;6.768;2023-07-31T00:30:44;10.07;;;4.53;;
81648;SDS011;71057;51.436;6.768;2023-07-31T00:33:10;8.00;;;4.22;;
81648;SDS011;71057;51.436;6.768;2023-07-31T00:35:35;13.77;;;5.33;;
81648;SDS011;71057;51.436;6.768;2023-07-31T00:38:00;10.30;;;4.67;;
81648;SDS011;71057;51.436;6.768;2023-07-31T00:40:25;11.82;;;4.55;;
81648;SDS011;71057;51.436;6.768;2023-07-31T00:42:50;12.53;;;5.07;;
81648;SDS011;71057;51.436;6.768;2023-07-31T00:45:16;12.33;;;5.27;;
81648;SDS011;71057;51.436;6.768;2023-07-31T00:47:41;10.00;;;4.53;;
81648;SDS011;71057;51.436;6.768;2023-07-31T00:50:06;7.70;;;4.40;;
81648;SDS011;71057;51.436;6.768;2023-07-31T00:52:32;9.52;;;5.35;;
81648;SDS011;71057;51.436;6.768;2023-07-31T00:54:57;10.37;;;5.13;;
81648;SDS011;71057;51.436;6.768;2023-07-31T00:57:22;8.70;;;4.30;;
81648;SDS011;71057;51.436;6.768;2023-07-31T00:59:47;10.23;;;4.17;;
81648;SDS011;71057;51.436;6.768;2023-07-31T01:02:12;15.40;;;4.77;;
81648;SDS011;71057;51.436;6.768;2023-07-31T01:04:38;10.68;;;4.40;;
81648;SDS011;71057;51.436;6.768;2023-07-31T01:07:07;10.03;;;4.03;;
81648;SDS011;71057;51.436;6.768;2023-07-31T01:12:01;11.23;;;5.22;;
81648;SDS011;71057;51.436;6.768;2023-07-31T01:14:27;9.52;;;4.20;;
81648;SDS011;71057;51.436;6.768;2023-07-31T01:16:52;8.63;;;4.70;;
81648;SDS011;71057;51.436;6.768;2023-07-31T01:19:18;8.33;;;4.57;;
81648;SDS011;71057;51.436;6.768;2023-07-31T01:26:47;8.73;;;5.00;;
81648;SDS011;71057;51.436;6.768;2023-07-31T01:29:20;8.82;;;4.05;;
81648;SDS011;71057;51.436;6.768;2023-07-31T01:31:48;11.50;;;4.05;;
81648;SDS011;71057;51.436;6.768;2023-07-31T01:34:14;8.55;;;3.83;;
81648;SDS011;71057;51.436;6.768;2023-07-31T01:36:41;12.05;;;4.60;;
81648;SDS011;71057;51.436;6.768;2023-07-31T01:39:06;10.10;;;4.40;;
81648;SDS011;71057;51.436;6.768;2023-07-31T01:41:31;10.63;;;3.83;;
81648;SDS011;71057;51.436;6.768;2023-07-31T01:43:56;10.33;;;4.53;;
81648;SDS011;71057;51.436;6.768;2023-07-31T01:46:21;9.13;;;3.70;;
81648;SDS011;71057;51.436;6.768;2023-07-31T01:48:47;9.97;;;3.87;;
81648;SDS011;71057;51.436;6.768;2023-07-31T01:51:12;10.43;;;4.70;;
81648;SDS011;71057;51.436;6.768;2023-07-31T01:53:37;8.07;;;4.20;;
81648;SDS011;71057;51.436;6.768;2023-07-31T01:56:02;8.35;;;3.88;;
81648;SDS011;71057;51.436;6.768;2023-07-31T01:58:28;13.57;;;4.72;;
81648;SDS011;71057;51.436;6.768;2023-07-31T02:00:53;8.70;;;4.23;;
81648;SDS011;71057;51.436;6.768;2023-07-31T02:03:18;9.10;;;4.13;;
81648;SDS011;71057;51.436;6.768;2023-07-31T02:05:47;8.53;;;4.00;;
81648;SDS011;71057;51.436;6.768;2023-07-31T02:08:12;11.98;;;4.55;;
81648;SDS011;71057;51.436;6.768;2023-07-31T02:10:37;8.90;;;3.47;;
81648;SDS011;71057;51.436;6.768;2023-07-31T02:13:03;8.83;;;4.57;;
81648;SDS011;71057;51.436;6.768;2023-07-31T02:15:29;8.25;;;3.97;;
81648;SDS011;71057;51.436;6.768;2023-07-31T02:17:54;12.00;;;4.72;;
81648;SDS011;71057;51.436;6.768;2023-07-31T02:20:19;10.17;;;4.37;;
81648;SDS011;71057;51.436;6.768;2023-07-31T02:22:44;11.70;;;4.23;;
81648;SDS011;71057;51.436;6.768;2023-07-31T02:25:10;9.37;;;3.87;;
81648;SDS011;71057;51.436;6.768;2023-07-31T02:27:35;7.17;;;3.67;;
81648;SDS011;71057;51.436;6.768;2023-07-31T02:30:00;10.87;;;5.03;;
81648;SDS011;71057;51.436;6.768;2023-07-31T02:32:25;12.87;;;4.20;;
81648;SDS011;71057;51.436;6.768;2023-07-31T02:34:50;9.83;;;3.87;;
81648;SDS011;71057;51.436;6.768;2023-07-31T02:37:16;9.33;;;3.60;;
81648;SDS011;71057;51.436;6.768;2023-07-31T02:39:41;11.37;;;3.80;;
81648;SDS011;71057;51.436;6.768;2023-07-31T02:42:06;10.37;;;4.47;;
81648;SDS011;71057;51.436;6.768;2023-07-31T02:44:31;8.73;;;3.70;;
81648;SDS011;71057;51.436;6.768;2023-07-31T02:46:56;10.43;;;3.80;;
81648;SDS011;71057;51.436;6.768;2023-07-31T02:49:21;9.13;;;4.20;;
81648;SDS011;71057;51.436;6.768;2023-07-31T02:51:47;10.30;;;3.97;;
81648;SDS011;71057;51.436;6.768;2023-07-31T02:54:12;10.23;;;3.77;;
81648;SDS011;71057;51.436;6.768;2023-07-31T02:56:37;9.00;;;3.70;;
81648;SDS011;71057;51.436;6.768;2023-07-31T02:59:02;8.83;;;4.27;;
81648;SDS011;71057;51.436;6.768;2023-07-31T03:01:27;12.17;;;4.20;;
81648;SDS011;71057;51.436;6.768;2023-07-31T03:03:52;8.27;;;3.77;;
81648;SDS011;71057;51.436;6.768;2023-07-31T03:06:18;8.85;;;3.53;;
81648;SDS011;71057;51.436;6.768;2023-07-31T03:08:43;10.17;;;3.80;;
81648;SDS011;71057;51.436;6.768;2023-07-31T03:11:08;10.17;;;3.37;;
81648;SDS011;71057;51.436;6.768;2023-07-31T03:13:33;8.23;;;3.70;;
81648;SDS011;71057;51.436;6.768;2023-07-31T03:15:58;8.20;;;3.43;;
81648;SDS011;71057;51.436;6.768;2023-07-31T03:18:24;9.53;;;3.60;;
81648;SDS011;71057;51.436;6.768;2023-07-31T03:20:49;9.10;;;3.70;;
81648;SDS011;71057;51.436;6.768;2023-07-31T03:23:14;6.97;;;3.87;;
81648;SDS011;71057;51.436;6.768;2023-07-31T03:25:41;10.30;;;3.83;;
81648;SDS011;71057;51.436;6.768;2023-07-31T03:28:06;9.20;;;3.97;;
81648;SDS011;71057;51.436;6.768;2023-07-31T03:30:32;14.23;;;5.23;;
81648;SDS011;71057;51.436;6.768;2023-07-31T03:32:57;11.40;;;4.40;;
81648;SDS011;71057;51.436;6.768;2023-07-31T03:35:22;10.93;;;3.93;;
81648;SDS011;71057;51.436;6.768;2023-07-31T03:37:47;8.20;;;3.73;;
81648;SDS011;71057;51.436;6.768;2023-07-31T03:40:12;11.97;;;4.37;;
81648;SDS011;71057;51.436;6.768;2023-07-31T03:42:37;9.20;;;4.00;;
81648;SDS011;71057;51.436;6.768;2023-07-31T03:45:03;11.87;;;4.60;;
81648;SDS011;71057;51.436;6.768;2023-07-31T03:47:28;6.75;;;3.72;;
81648;SDS011;71057;51.436;6.768;2023-07-31T03:49:53;9.60;;;4.03;;
81648;SDS011;71057;51.436;6.768;2023-07-31T03:52:19;10.87;;;3.77;;
81648;SDS011;71057;51.436;6.768;2023-07-31T03:54:44;13.53;;;4.20;;
81648;SDS011;71057;51.436;6.768;2023-07-31T03:57:12;8.38;;;3.83;;
81648;SDS011;71057;51.436;6.768;2023-07-31T03:59:37;9.83;;;3.80;;
81648;SDS011;71057;51.436;6.768;2023-07-31T04:02:04;10.70;;;3.40;;
81648;SDS011;71057;51.436;6.768;2023-07-31T04:04:29;10.80;;;3.97;;
81648;SDS011;71057;51.436;6.768;2023-07-31T04:06:54;6.70;;;3.13;;
81648;SDS011;71057;51.436;6.768;2023-07-31T04:09:19;10.70;;;3.63;;
81648;SDS011;71057;51.436;6.768;2023-07-31T04:11:45;8.53;;;3.80;;
81648;SDS011;71057;51.436;6.768;2023-07-31T04:14:10;8.40;;;3.63;;
81648;SDS011;71057;51.436;6.768;2023-07-31T04:16:35;8.63;;;4.27;;
81648;SDS011;71057;51.436;6.768;2023-07-31T04:19:00;10.87;;;4.40;;
81648;SDS011;71057;51.436;6.768;2023-07-31T04:21:25;9.20;;;3.23;;
81648;SDS011;71057;51.436;6.768;2023-07-31T04:23:50;10.87;;;4.37;;
81648;SDS011;71057;51.436;6.768;2023-07-31T04:26:16;8.50;;;4.00;;
81648;SDS011;71057;51.436;6.768;2023-07-31T04:28:41;13.53;;;3.80;;
81648;SDS011;71057;51.436;6.768;2023-07-31T04:31:06;9.70;;;4.07;;
81648;SDS011;71057;51.436;6.768;2023-07-31T04:33:31;7.87;;;3.53;;
81648;SDS011;71057;51.436;6.768;2023-07-31T04:35:57;8.75;;;3.80;;
81648;SDS011;71057;51.436;6.768;2023-07-31T04:38:22;11.53;;;4.03;;
81648;SDS011;71057;51.436;6.768;2023-07-31T04:40:47;7.70;;;3.37;;
81648;SDS011;71057;51.436;6.768;2023-07-31T04:43:12;10.50;;;4.33;;
81648;SDS011;71057;51.436;6.768;2023-07-31T04:45:37;7.93;;;3.83;;
81648;SDS011;71057;51.436;6.768;2023-07-31T04:48:03;6.47;;;4.33;;
81648;SDS011;71057;51.436;6.768;2023-07-31T04:50:28;6.55;;;3.55;;
81648;SDS011;71057;51.436;6.768;2023-07-31T04:52:55;7.15;;;3.38;;
81648;SDS011;71057;51.436;6.768;2023-07-31T04:55:20;10.77;;;4.00;;
81648;SDS011;71057;51.436;6.768;2023-07-31T04:57:45;9.20;;;3.53;;
81648;SDS011;71057;51.436;6.768;2023-07-31T05:00:10;8.73;;;3.53;;
81648;SDS011;71057;51.436;6.768;2023-07-31T05:02:36;10.55;;;4.10;;
81648;SDS011;71057;51.436;6.768;2023-07-31T05:05:01;10.20;;;4.43;;
81648;SDS011;71057;51.436;6.768;2023-07-31T05:07:26;11.13;;;4.97;;
81648;SDS011;71057;51.436;6.768;2023-07-31T05:09:51;7.23;;;3.80;;
81648;SDS011;71057;51.436;6.768;2023-07-31T05:12:16;8.03;;;4.80;;
81648;SDS011;71057;51.436;6.768;2023-07-31T05:14:42;10.37;;;5.30;;
81648;SDS011;71057;51.436;6.768;2023-07-31T05:17:07;9.33;;;5.57;;
81648;SDS011;71057;51.436;6.768;2023-07-31T05:19:32;13.20;;;5.40;;
81648;SDS011;71057;51.436;6.768;2023-07-31T05:21:57;11.30;;;4.87;;
81648;SDS011;71057;51.436;6.768;2023-07-31T05:24:22;11.05;;;4.30;;
81648;SDS011;71057;51.436;6.768;2023-07-31T05:26:48;10.17;;;5.47;;
81648;SDS011;71057;51.436;6.768;2023-07-31T05:29:13;10.37;;;6.00;;
81648;SDS011;71057;51.436;6.768;2023-07-31T05:31:38;9.60;;;5.50;;
81648;SDS011;71057;51.436;6.768;2023-07-31T05:34:03;7.80;;;5.07;;
81648;SDS011;71057;51.436;6.768;2023-07-31T05:36:28;8.98;;;4.88;;
81648;SDS011;71057;51.436;6.768;2023-07-31T05:38:54;9.07;;;5.10;;
81648;SDS011;71057;51.436;6.768;2023-07-31T05:41:19;10.70;;;4.77;;
81648;SDS011;71057;51.436;6.768;2023-07-31T05:43:44;9.33;;;5.13;;
81648;SDS011;71057;51.436;6.768;2023-07-31T05:46:09;9.50;;;4.30;;
81648;SDS011;71057;51.436;6.768;2023-07-31T05:48:34;6.47;;;4.40;;
81648;SDS011;71057;51.436;6.768;2023-07-31T05:51:00;8.27;;;3.97;;
81648;SDS011;71057;51.436;6.768;2023-07-31T05:53:25;8.10;;;5.07;;
81648;SDS011;71057;51.436;6.768;2023-07-31T05:55:50;8.27;;;4.40;;
81648;SDS011;71057;51.436;6.768;2023-07-31T05:58:15;8.77;;;4.37;;
81648;SDS011;71057;51.436;6.768;2023-07-31T06:00:41;9.57;;;3.95;;
81648;SDS011;71057;51.436;6.768;2023-07-31T06:03:07;8.30;;;4.22;;
81648;SDS011;71057;51.436;6.768;2023-07-31T06:05:32;6.27;;;4.50;;
81648;SDS011;71057;51.436;6.768;2023-07-31T06:07:57;7.77;;;3.80;;
81648;SDS011;71057;51.436;6.768;2023-07-31T06:10:22;8.93;;;4.00;;
81648;SDS011;71057;51.436;6.768;2023-07-31T06:12:47;7.37;;;3.80;;
81648;SDS011;71057;51.436;6.768;2023-07-31T06:15:13;5.33;;;3.77;;
81648;SDS011;71057;51.436;6.768;2023-07-31T06:17:38;7.60;;;4.80;;
81648;SDS011;71057;51.436;6.768;2023-07-31T06:20:03;7.77;;;4.57;;
81648;SDS011;71057;51.436;6.768;2023-07-31T06:22:31;9.07;;;4.20;;
81648;SDS011;71057;51.436;6.768;2023-07-31T06:24:56;7.90;;;4.07;;
81648;SDS011;71057;51.436;6.768;2023-07-31T06:27:22;7.53;;;4.57;;
81648;SDS011;71057;51.436;6.768;2023-07-31T06:29:47;8.20;;;4.33;;
81648;SDS011;71057;51.436;6.768;2023-07-31T06:32:13;7.95;;;4.18;;
81648;SDS011;71057;51.436;6.768;2023-07-31T06:34:38;7.90;;;4.15;;
81648;SDS011;71057;51.436;6.768;2023-07-31T06:37:03;7.80;;;5.17;;
81648;SDS011;71057;51.436;6.768;2023-07-31T06:39:29;7.55;;;4.95;;
81648;SDS011;71057;51.436;6.768;2023-07-31T06:41:54;6.67;;;4.30;;
81648;SDS011;71057;51.436;6.768;2023-07-31T06:44:19;5.87;;;4.40;;
81648;SDS011;71057;51.436;6.768;2023-07-31T06:46:44;7.83;;;4.40;;
81648;SDS011;71057;51.436;6.768;2023-07-31T06:49:09;7.27;;;4.63;;
81648;SDS011;71057;51.436;6.768;2023-07-31T06:51:35;7.53;;;3.77;;
81648;SDS011;71057;51.436;6.768;2023-07-31T06:54:01;6.75;;;3.83;;
81648;SDS011;71057;51.436;6.768;2023-07-31T06:56:26;7.47;;;4.20;;
81648;SDS011;71057;51.436;6.768;2023-07-31T06:58:52;7.72;;;4.60;;
81648;SDS011;71057;51.436;6.768;2023-07-31T07:01:17;8.23;;;4.73;;
81648;SDS011;71057;51.436;6.768;2023-07-31T07:03:42;7.03;;;4.03;;
81648;SDS011;71057;51.436;6.768;2023-07-31T07:06:08;10.03;;;4.63;;
81648;SDS011;71057;51.436;6.768;2023-07-31T07:08:33;9.50;;;4.20;;
81648;SDS011;71057;51.436;6.768;2023-07-31T07:10:58;7.57;;;4.07;;
81648;SDS011;71057;51.436;6.768;2023-07-31T07:13:23;7.73;;;4.23;;
81648;SDS011;71057;51.436;6.768;2023-07-31T07:15:49;6.67;;;3.93;;
81648;SDS011;71057;51.436;6.768;2023-07-31T07:18:14;7.53;;;4.32;;
81648;SDS011;71057;51.436;6.768;2023-07-31T07:20:40;9.13;;;4.25;;
81648;SDS011;71057;51.436;6.768;2023-07-31T07:23:05;8.60;;;4.00;;
81648;SDS011;71057;51.436;6.768;2023-07-31T07:25:30;8.57;;;4.18;;
81648;SDS011;71057;51.436;6.768;2023-07-31T07:27:55;8.60;;;4.87;;
81648;SDS011;71057;51.436;6.768;2023-07-31T07:30:20;10.03;;;4.97;;
81648;SDS011;71057;51.436;6.768;2023-07-31T07:32:46;8.73;;;3.60;;
81648;SDS011;71057;51.436;6.768;2023-07-31T07:35:11;7.43;;;4.30;;
81648;SDS011;71057;51.436;6.768;2023-07-31T07:37:36;5.65;;;4.25;;
81648;SDS011;71057;51.436;6.768;2023-07-31T07:40:01;6.80;;;4.23;;
81648;SDS011;71057;51.436;6.768;2023-07-31T07:42:27;8.17;;;4.17;;
81648;SDS011;71057;51.436;6.768;2023-07-31T07:44:52;8.83;;;4.53;;
81648;SDS011;71057;51.436;6.768;2023-07-31T07:47:17;7.17;;;3.83;;
81648;SDS011;71057;51.436;6.768;2023-07-31T07:49:42;5.47;;;4.17;;
81648;SDS011;71057;51.436;6.768;2023-07-31T07:52:07;9.30;;;4.47;;
81648;SDS011;71057;51.436;6.768;2023-07-31T07:54:33;7.70;;;4.03;;
81648;SDS011;71057;51.436;6.768;2023-07-31T07:56:58;6.77;;;3.73;;
81648;SDS011;71057;51.436;6.768;2023-07-31T07:59:24;7.63;;;3.80;;
81648;SDS011;71057;51.436;6.768;2023-07-31T08:01:49;8.73;;;3.53;;
81648;SDS011;71057;51.436;6.768;2023-07-31T08:04:14;6.90;;;3.87;;
81648;SDS011;71057;51.436;6.768;2023-07-31T08:06:39;7.10;;;3.70;;
81648;SDS011;71057;51.436;6.768;2023-07-31T08:09:04;5.20;;;2.83;;
81648;SDS011;71057;51.436;6.768;2023-07-31T08:11:31;5.60;;;3.47;;
81648;SDS011;71057;51.436;6.768;2023-07-31T08:13:57;7.15;;;3.88;;
81648;SDS011;71057;51.436;6.768;2023-07-31T08:16:22;6.37;;;3.10;;
81648;SDS011;71057;51.436;6.768;2023-07-31T08:18:47;5.33;;;3.40;;
81648;SDS011;71057;51.436;6.768;2023-07-31T08:21:13;5.13;;;3.42;;
81648;SDS011;71057;51.436;6.768;2023-07-31T08:23:39;5.47;;;3.17;;
81648;SDS011;71057;51.436;6.768;2023-07-31T08:26:04;4.47;;;3.80;;
81648;SDS011;71057;51.436;6.768;2023-07-31T08:28:29;5.60;;;2.83;;
81648;SDS011;71057;51.436;6.768;2023-07-31T08:30:54;4.20;;;3.13;;
81648;SDS011;71057;51.436;6.768;2023-07-31T08:33:19;5.97;;;3.20;;
81648;SDS011;71057;51.436;6.768;2023-07-31T08:35:44;8.00;;;3.97;;
81648;SDS011;71057;51.436;6.768;2023-07-31T08:38:10;5.80;;;3.70;;
81648;SDS011;71057;51.436;6.768;2023-07-31T08:40:38;7.60;;;4.00;;
81648;SDS011;71057;51.436;6.768;2023-07-31T08:43:03;7.22;;;3.55;;
81648;SDS011;71057;51.436;6.768;2023-07-31T08:45:28;6.10;;;3.80;;
81648;SDS011;71057;51.436;6.768;2023-07-31T08:47:54;6.50;;;3.60;;
81648;SDS011;71057;51.436;6.768;2023-07-31T08:50:20;6.78;;;3.83;;
81648;SDS011;71057;51.436;6.768;2023-07-31T08:52:46;5.15;;;2.95;;
81648;SDS011;71057;51.436;6.768;2023-07-31T08:55:11;6.20;;;4.00;;
81648;SDS011;71057;51.436;6.768;2023-07-31T08:57:37;6.60;;;3.93;;
81648;SDS011;71057;51.436;6.768;2023-07-31T09:00:03;6.93;;;3.92;;
81648;SDS011;71057;51.436;6.768;2023-07-31T09:02:31;6.28;;;3.63;;
81648;SDS011;71057;51.436;6.768;2023-07-31T09:04:58;6.30;;;4.55;;
81648;SDS011;71057;51.436;6.768;2023-07-31T09:07:24;5.82;;;4.00;;
81648;SDS011;71057;51.436;6.768;2023-07-31T09:09:49;5.33;;;3.80;;
81648;SDS011;71057;51.436;6.768;2023-07-31T09:12:14;5.57;;;3.90;;
81648;SDS011;71057;51.436;6.768;2023-07-31T09:14:40;5.33;;;4.03;;
81648;SDS011;71057;51.436;6.768;2023-07-31T09:17:07;6.22;;;3.70;;
81648;SDS011;71057;51.436;6.768;2023-07-31T09:19:32;6.03;;;3.73;;
81648;SDS011;71057;51.436;6.768;2023-07-31T09:21:59;5.28;;;4.28;;
81648;SDS011;71057;51.436;6.768;2023-07-31T09:24:33;5.65;;;3.22;;
81648;SDS011;71057;51.436;6.768;2023-07-31T09:26:59;6.38;;;4.38;;
81648;SDS011;71057;51.436;6.768;2023-07-31T09:29:25;5.68;;;3.85;;
81648;SDS011;71057;51.436;6.768;2023-07-31T09:31:51;5.40;;;3.63;;
81648;SDS011;71057;51.436;6.768;2023-07-31T09:34:17;6.10;;;3.78;;
81648;SDS011;71057;51.436;6.768;2023-07-31T09:39:11;5.78;;;3.25;;
81648;SDS011;71057;51.436;6.768;2023-07-31T09:41:40;5.55;;;3.60;;
81648;SDS011;71057;51.436;6.768;2023-07-31T09:44:06;4.38;;;2.75;;
81648;SDS011;71057;51.436;6.768;2023-07-31T09:46:33;4.38;;;3.08;;
81648;SDS011;71057;51.436;6.768;2023-07-31T09:49:06;4.55;;;3.42;;
81648;SDS011;71057;51.436;6.768;2023-07-31T09:51:31;5.10;;;3.25;;
81648;SDS011;71057;51.436;6.768;2023-07-31T09:53:56;5.03;;;3.97;;
81648;SDS011;71057;51.436;6.768;2023-07-31T09:56:21;5.00;;;3.30;;
81648;SDS011;71057;51.436;6.768;2023-07-31T09:58:48;6.15;;;3.85;;
81648;SDS011;71057;51.436;6.768;2023-07-31T10:01:13;4.30;;;3.08;;
81648;SDS011;71057;51.436;6.768;2023-07-31T10:03:38;4.47;;;3.38;;
81648;SDS011;71057;51.436;6.768;2023-07-31T10:06:04;3.88;;;3.28;;
81648;SDS011;71057;51.436;6.768;2023-07-31T10:08:30;5.43;;;3.50;;
81648;SDS011;71057;51.436;6.768;2023-07-31T10:10:55;4.65;;;3.47;;
81648;SDS011;71057;51.436;6.768;2023-07-31T10:13:23;5.55;;;3.42;;
81648;SDS011;71057;51.436;6.768;2023-07-31T10:15:48;4.78;;;3.40;;
81648;SDS011;71057;51.436;6.768;2023-07-31T10:18:14;5.00;;;4.18;;
81648;SDS011;71057;51.436;6.768;2023-07-31T10:20:39;5.38;;;3.38;;
81648;SDS011;71057;51.436;6.768;2023-07-31T10:23:05;4.68;;;3.83;;
81648;SDS011;71057;51.436;6.768;2023-07-31T10:25:31;5.20;;;3.40;;
81648;SDS011;71057;51.436;6.768;2023-07-31T10:27:57;5.63;;;3.88;;
81648;SDS011;71057;51.436;6.768;2023-07-31T10:30:24;6.28;;;4.10;;
81648;SDS011;71057;51.436;6.768;2023-07-31T10:32:50;5.20;;;3.60;;
81648;SDS011;71057;51.436;6.768;2023-07-31T10:35:16;6.22;;;3.63;;
81648;SDS011;71057;51.436;6.768;2023-07-31T10:37:42;5.25;;;3.90;;
81648;SDS011;71057;51.436;6.768;2023-07-31T10:40:13;5.72;;;3.42;;
81648;SDS011;71057;51.436;6.768;2023-07-31T10:42:47;5.38;;;3.83;;
81648;SDS011;71057;51.436;6.768;2023-07-31T10:45:13;5.75;;;3.83;;
81648;SDS011;71057;51.436;6.768;2023-07-31T10:47:45;5.35;;;3.53;;
81648;SDS011;71057;51.436;6.768;2023-07-31T10:50:16;5.20;;;3.28;;
81648;SDS011;71057;51.436;6.768;2023-07-31T10:52:43;4.15;;;2.83;;
81648;SDS011;71057;51.436;6.768;2023-07-31T10:57:43;3.97;;;2.80;;
81648;SDS011;71057;51.436;6.768;2023-07-31T11:00:18;5.28;;;3.67;;
81648;SDS011;71057;51.436;6.768;2023-07-31T11:02:55;5.90;;;3.60;;
81648;SDS011;71057;51.436;6.768;2023-07-31T11:05:20;5.68;;;3.22;;
81648;SDS011;71057;51.436;6.768;2023-07-31T11:07:50;5.57;;;2.83;;
81648;SDS011;71057;51.436;6.768;2023-07-31T11:10:18;6.50;;;3.40;;
81648;SDS011;71057;51.436;6.768;2023-07-31T11:12:44;5.80;;;3.50;;
81648;SDS011;71057;51.436;6.768;2023-07-31T11:15:10;5.78;;;3.15;;
81648;SDS011;71057;51.436;6.768;2023-07-31T11:17:38;5.68;;;2.97;;
81648;SDS011;71057;51.436;6.768;2023-07-31T11:20:03;6.10;;;3.38;;
81648;SDS011;71057;51.436;6.768;2023-07-31T11:22:29;6.40;;;2.97;;
81648;SDS011;71057;51.436;6.768;2023-07-31T11:24:55;4.95;;;2.90;;
81648;SDS011;71057;51.436;6.768;2023-07-31T11:27:20;6.43;;;2.90;;
81648;SDS011;71057;51.436;6.768;2023-07-31T11:29:47;7.00;;;3.08;;
81648;SDS011;71057;51.436;6.768;2023-07-31T11:32:15;5.85;;;2.75;;
81648;SDS011;71057;51.436;6.768;2023-07-31T11:34:54;4.60;;;3.42;;
81648;SDS011;71057;51.436;6.768;2023-07-31T11:37:19;5.45;;;3.38;;
81648;SDS011;71057;51.436;6.768;2023-07-31T11:39:58;4.72;;;3.20;;
81648;SDS011;71057;51.436;6.768;2023-07-31T11:42:23;4.80;;;3.20;;
81648;SDS011;71057;51.436;6.768;2023-07-31T11:44:48;4.87;;;3.90;;
81648;SDS011;71057;51.436;6.768;2023-07-31T11:47:13;5.73;;;4.33;;
81648;SDS011;71057;51.436;6.768;2023-07-31T11:49:38;5.50;;;3.50;;
81648;SDS011;71057;51.436;6.768;2023-07-31T11:52:04;5.35;;;3.22;;
81648;SDS011;71057;51.436;6.768;2023-07-31T11:54:29;5.35;;;3.55;;
81648;SDS011;71057;51.436;6.768;2023-07-31T11:56:54;5.43;;;4.00;;
81648;SDS011;71057;51.436;6.768;2023-07-31T11:59:21;5.72;;;3.63;;
81648;SDS011;71057;51.436;6.768;2023-07-31T12:01:46;5.13;;;3.95;;
81648;SDS011;71057;51.436;6.768;2023-07-31T12:04:14;5.78;;;3.80;;
81648;SDS011;71057;51.436;6.768;2023-07-31T12:06:39;5.33;;;3.50;;
81648;SDS011;71057;51.436;6.768;2023-07-31T12:09:04;7.03;;;3.60;;
81648;SDS011;71057;51.436;6.768;2023-07-31T12:11:30;6.60;;;3.88;;
81648;SDS011;71057;51.436;6.768;2023-07-31T12:13:55;5.63;;;4.00;;
81648;SDS011;71057;51.436;6.768;2023-07-31T12:16:20;5.00;;;3.87;;
81648;SDS011;71057;51.436;6.768;2023-07-31T12:18:45;6.37;;;3.33;;
81648;SDS011;71057;51.436;6.768;2023-07-31T12:21:14;4.38;;;3.72;;
81648;SDS011;71057;51.436;6.768;2023-07-31T12:23:40;6.38;;;3.38;;
81648;SDS011;71057;51.436;6.768;2023-07-31T12:26:08;5.78;;;3.30;;
81648;SDS011;71057;51.436;6.768;2023-07-31T12:28:46;3.63;;;2.72;;
81648;SDS011;71057;51.436;6.768;2023-07-31T12:31:12;6.47;;;3.13;;
81648;SDS011;71057;51.436;6.768;2023-07-31T12:33:38;3.80;;;2.38;;
81648;SDS011;71057;51.436;6.768;2023-07-31T12:36:04;3.28;;;2.20;;
81648;SDS011;71057;51.436;6.768;2023-07-31T12:38:31;5.38;;;2.60;;
81648;SDS011;71057;51.436;6.768;2023-07-31T12:40:56;4.27;;;2.80;;
81648;SDS011;71057;51.436;6.768;2023-07-31T12:43:22;5.87;;;2.43;;
81648;SDS011;71057;51.436;6.768;2023-07-31T12:45:47;4.97;;;3.10;;
81648;SDS011;71057;51.436;6.768;2023-07-31T12:48:12;5.63;;;3.45;;
81648;SDS011;71057;51.436;6.768;2023-07-31T12:50:37;4.17;;;3.73;;
81648;SDS011;71057;51.436;6.768;2023-07-31T12:53:03;4.77;;;2.80;;
81648;SDS011;71057;51.436;6.768;2023-07-31T12:55:28;4.50;;;2.67;;
81648;SDS011;71057;51.436;6.768;2023-07-31T12:57:53;3.75;;;3.03;;
81648;SDS011;71057;51.436;6.768;2023-07-31T13:00:19;3.77;;;3.03;;
81648;SDS011;71057;51.436;6.768;2023-07-31T13:02:44;4.07;;;2.80;;
81648;SDS011;71057;51.436;6.768;2023-07-31T13:05:09;4.60;;;3.33;;
81648;SDS011;71057;51.436;6.768;2023-07-31T13:07:34;5.23;;;3.10;;
81648;SDS011;71057;51.436;6.768;2023-07-31T13:10:00;4.40;;;2.90;;
81648;SDS011;71057;51.436;6.768;2023-07-31T13:12:25;4.70;;;2.60;;
81648;SDS011;71057;51.436;6.768;2023-07-31T13:14:50;3.67;;;2.43;;
81648;SDS011;71057;51.436;6.768;2023-07-31T13:17:16;6.03;;;2.97;;
81648;SDS011;71057;51.436;6.768;2023-07-31T13:19:41;2.73;;;2.53;;
81648;SDS011;71057;51.436;6.768;2023-07-31T13:22:06;4.60;;;2.77;;
81648;SDS011;71057;51.436;6.768;2023-07-31T13:24:31;5.60;;;3.10;;
81648;SDS011;71057;51.436;6.768;2023-07-31T13:26:56;4.07;;;3.33;;
81648;SDS011;71057;51.436;6.768;2023-07-31T13:29:22;6.10;;;3.22;;
81648;SDS011;71057;51.436;6.768;2023-07-31T13:31:47;5.63;;;2.97;;
81648;SDS011;71057;51.436;6.768;2023-07-31T13:34:12;4.93;;;3.05;;
81648;SDS011;71057;51.436;6.768;2023-07-31T13:36:37;4.97;;;2.77;;
81648;SDS011;71057;51.436;6.768;2023-07-31T13:39:03;4.47;;;3.00;;
81648;SDS011;71057;51.436;6.768;2023-07-31T13:41:28;6.05;;;3.30;;
81648;SDS011;71057;51.436;6.768;2023-07-31T13:43:53;5.43;;;3.23;;
81648;SDS011;71057;51.436;6.768;2023-07-31T13:46:18;4.73;;;4.00;;
81648;SDS011;71057;51.436;6.768;2023-07-31T13:48:44;6.47;;;3.53;;
81648;SDS011;71057;51.436;6.768;2023-07-31T13:51:09;7.40;;;3.87;;
81648;SDS011;71057;51.436;6.768;2023-07-31T13:53:34;7.40;;;4.63;;
81648;SDS011;71057;51.436;6.768;2023-07-31T13:55:59;5.77;;;3.90;;
81648;SDS011;71057;51.436;6.768;2023-07-31T13:58:24;6.10;;;4.60;;
81648;SDS011;71057;51.436;6.768;2023-07-31T14:00:50;5.40;;;3.70;;
81648;SDS011;71057;51.436;6.768;2023-07-31T14:03:15;6.23;;;3.70;;
81648;SDS011;71057;51.436;6.768;2023-07-31T14:05:40;5.37;;;3.83;;
81648;SDS011;71057;51.436;6.768;2023-07-31T14:08:05;6.13;;;2.83;;
81648;SDS011;71057;51.436;6.768;2023-07-31T14:10:31;4.57;;;3.08;;
81648;SDS011;71057;51.436;6.768;2023-07-31T14:12:56;6.33;;;3.77;;
81648;SDS011;71057;51.436;6.768;2023-07-31T14:15:21;5.10;;;3.23;;
81648;SDS011;71057;51.436;6.768;2023-07-31T14:17:46;6.33;;;3.50;;
81648;SDS011;71057;51.436;6.768;2023-07-31T14:20:11;5.43;;;3.30;;
81648;SDS011;71057;51.436;6.768;2023-07-31T14:22:37;5.07;;;3.97;;
81648;SDS011;71057;51.436;6.768;2023-07-31T14:25:03;5.32;;;3.80;;
81648;SDS011;71057;51.436;6.768;2023-07-31T14:27:28;7.38;;;3.92;;
81648;SDS011;71057;51.436;6.768;2023-07-31T14:29:53;6.33;;;4.17;;
81648;SDS011;71057;51.436;6.768;2023-07-31T14:32:18;5.60;;;3.50;;
81648;SDS011;71057;51.436;6.768;2023-07-31T14:34:43;6.80;;;4.27;;
81648;SDS011;71057;51.436;6.768;2023-07-31T14:37:09;7.33;;;3.30;;
81648;SDS011;71057;51.436;6.768;2023-07-31T14:39:34;4.83;;;2.80;;
81648;SDS011;71057;51.436;6.768;2023-07-31T14:41:59;7.93;;;4.17;;
81648;SDS011;71057;51.436;6.768;2023-07-31T14:44:24;5.80;;;3.73;;
81648;SDS011;71057;51.436;6.768;2023-07-31T14:46:49;8.60;;;4.70;;
81648;SDS011;71057;51.436;6.768;2023-07-31T14:49:14;7.33;;;4.47;;